Time;durP1;ratioP1;P1;durP2;ratioP2;P2;SDS_P1;SDS_P2;PMS_P1;PMS_P2;Temp;Humidity;BMP_temperature;BMP_pressure;BME280_temperature;BME280_humidity;BME280_pressure;Samples;Min_cycle;Max_cycle;Signal;HPM_P1;HPM_P2
2021/01/18 00:02:08;;;;;;;21.57;10.57;;;3.20;99.90;;;;;;4933559;29;20192;-85
2021/01/18 00:04:34;;;;;;;18.70;8.80;;;3.10;99.90;;;;;;4920066;29;20471;-87
2021/01/18 00:07:04;;;;;;;17.67;10.07;;;3.10;99.90;;;;;;4939276;29;20194;-89
2021/01/18 00:09:30;;;;;;;21.60;11.73;;;3.20;99.90;;;;;;4918736;29;20200;-88
2021/01/18 00:11:55;;;;;;;19.60;10.63;;;3.20;99.90;;;;;;4945869;28;20539;-88
2021/01/18 00:14:21;;;;;;;13.20;9.87;;;3.20;99.90;;;;;;4937293;29;20222;-89
2021/01/18 00:16:47;;;;;;;20.87;10.83;;;3.20;99.90;;;;;;4911058;28;20188;-86
2021/01/18 00:19:13;;;;;;;16.97;7.83;;;3.20;99.90;;;;;;4893252;29;20544;-86
2021/01/18 00:21:45;;;;;;;19.17;10.13;;;3.20;99.90;;;;;;4939578;28;20748;-88
2021/01/18 00:24:11;;;;;;;16.07;11.23;;;3.20;99.90;;;;;;4935916;29;21455;-88
2021/01/18 00:26:36;;;;;;;17.30;9.20;;;3.20;99.90;;;;;;4932657;29;20591;-88
2021/01/18 00:29:11;;;;;;;14.37;9.40;;;3.10;99.90;;;;;;4919872;29;20200;-88
2021/01/18 00:31:42;;;;;;;19.77;9.40;;;3.10;99.90;;;;;;4937337;29;20203;-86
2021/01/18 00:34:07;;;;;;;22.07;10.73;;;3.10;99.90;;;;;;4934666;29;20463;-85
2021/01/18 00:36:43;;;;;;;16.23;9.53;;;3.10;99.90;;;;;;4933423;29;20442;-84
2021/01/18 00:39:09;;;;;;;14.87;9.60;;;3.10;99.90;;;;;;4936196;29;20637;-85
2021/01/18 00:41:42;;;;;;;15.50;9.23;;;3.10;99.90;;;;;;4938400;29;20433;-84
2021/01/18 00:44:07;;;;;;;22.80;10.33;;;3.10;99.90;;;;;;4941151;28;20212;-86
2021/01/18 00:46:33;;;;;;;25.20;11.57;;;3.10;99.90;;;;;;4920776;29;20459;-87
2021/01/18 00:48:59;;;;;;;20.03;9.90;;;3.20;99.90;;;;;;4938382;28;20503;-86
2021/01/18 00:51:24;;;;;;;13.67;9.90;;;3.20;99.90;;;;;;4927697;29;20187;-87
2021/01/18 00:53:50;;;;;;;18.73;10.50;;;3.10;99.90;;;;;;4932993;28;20219;-86
2021/01/18 00:56:16;;;;;;;20.10;10.70;;;3.10;99.90;;;;;;4926436;29;20192;-85
2021/01/18 00:58:42;;;;;;;20.80;9.97;;;3.20;99.90;;;;;;4936423;28;20219;-86
2021/01/18 01:01:08;;;;;;;25.53;11.70;;;3.20;99.90;;;;;;4940982;29;20892;-88
2021/01/18 01:03:34;;;;;;;18.07;10.10;;;3.30;99.90;;;;;;4936689;28;20525;-85
2021/01/18 01:06:00;;;;;;;28.37;11.80;;;3.20;99.90;;;;;;4899111;29;20500;-88
2021/01/18 01:08:26;;;;;;;17.50;10.63;;;3.20;99.90;;;;;;4943568;28;21049;-84
2021/01/18 01:10:52;;;;;;;16.73;9.67;;;3.30;99.90;;;;;;4938376;29;20699;-83
2021/01/18 01:13:17;;;;;;;17.97;10.27;;;3.30;99.90;;;;;;4943908;28;20665;-89
2021/01/18 01:15:43;;;;;;;20.37;10.70;;;3.30;99.90;;;;;;4920040;29;20200;-84
2021/01/18 01:18:09;;;;;;;20.97;10.83;;;3.20;99.90;;;;;;4931911;29;20212;-87
2021/01/18 01:20:34;;;;;;;24.37;10.90;;;3.20;99.90;;;;;;4914574;29;20207;-85
2021/01/18 01:23:00;;;;;;;19.03;10.10;;;3.20;99.90;;;;;;4928601;29;20300;-86
2021/01/18 01:25:26;;;;;;;20.17;10.07;;;3.10;99.90;;;;;;4933242;29;20191;-84
2021/01/18 01:27:52;;;;;;;19.70;9.60;;;3.10;99.90;;;;;;4895487;29;20232;-84
2021/01/18 01:30:20;;;;;;;17.30;9.87;;;3.10;99.90;;;;;;4919519;29;20462;-86
2021/01/18 01:32:48;;;;;;;17.03;10.33;;;3.10;99.90;;;;;;4920140;29;20498;-86
2021/01/18 01:35:20;;;;;;;17.90;9.13;;;3.10;99.90;;;;;;4943856;28;20413;-84
2021/01/18 01:37:45;;;;;;;26.87;10.50;;;3.10;99.90;;;;;;4936982;28;20569;-83
2021/01/18 01:40:13;;;;;;;28.23;12.23;;;3.10;99.90;;;;;;4939939;29;21005;-86
2021/01/18 01:42:39;;;;;;;22.73;10.33;;;3.10;99.90;;;;;;4937704;28;20404;-87
2021/01/18 01:45:06;;;;;;;19.30;8.93;;;3.10;99.90;;;;;;4925382;29;20441;-86
2021/01/18 01:47:39;;;;;;;18.50;10.10;;;3.00;99.90;;;;;;4930967;29;20527;-85
2021/01/18 01:50:10;;;;;;;23.17;11.17;;;3.10;99.90;;;;;;4935323;28;20450;-84
2021/01/18 01:52:46;;;;;;;13.03;7.63;;;3.10;99.90;;;;;;4923448;29;20460;-86
2021/01/18 01:55:22;;;;;;;19.60;9.77;;;3.00;99.90;;;;;;4915832;29;20447;-84
2021/01/18 01:57:48;;;;;;;14.77;9.63;;;3.00;99.90;;;;;;4943472;29;20466;-85
2021/01/18 02:00:16;;;;;;;187.73;20.90;;;3.00;99.90;;;;;;4930288;28;20479;-86
2021/01/18 02:02:42;;;;;;;21.50;11.50;;;3.00;99.90;;;;;;4944011;28;21057;-88
2021/01/18 02:05:13;;;;;;;33.13;10.37;;;3.00;99.90;;;;;;4919338;29;20437;-87
2021/01/18 02:07:39;;;;;;;13.33;8.63;;;3.00;99.90;;;;;;4921010;29;20227;-88
2021/01/18 02:10:05;;;;;;;21.07;10.50;;;3.00;99.90;;;;;;4923932;29;21134;-86
2021/01/18 02:12:31;;;;;;;18.03;9.53;;;3.00;99.90;;;;;;4906518;28;20526;-87
2021/01/18 02:15:08;;;;;;;19.33;10.07;;;3.00;99.90;;;;;;4934310;29;20757;-85
2021/01/18 02:18:06;;;;;;;19.30;9.93;;;3.00;99.90;;;;;;4933712;29;20284;-84
2021/01/18 02:20:50;;;;;;;15.57;9.30;;;3.00;99.90;;;;;;4932780;28;20435;-85
2021/01/18 02:23:25;;;;;;;23.17;9.43;;;3.00;99.90;;;;;;4937386;28;20447;-88
2021/01/18 02:25:58;;;;;;;21.30;9.63;;;3.10;99.90;;;;;;4939152;29;21028;-88
2021/01/18 02:28:43;;;;;;;17.17;11.00;;;3.00;99.90;;;;;;4922024;29;20442;-85
2021/01/18 02:31:32;;;;;;;22.80;9.80;;;3.00;99.90;;;;;;4937176;29;20998;-83
2021/01/18 02:34:18;;;;;;;14.20;8.40;;;3.10;99.90;;;;;;4893110;29;21062;-87
2021/01/18 02:36:47;;;;;;;18.87;9.30;;;3.10;99.90;;;;;;4892727;29;20531;-85
2021/01/18 02:39:42;;;;;;;15.63;10.43;;;3.10;99.90;;;;;;4928700;29;20540;-85
2021/01/18 02:42:15;;;;;;;20.43;9.50;;;3.10;99.90;;;;;;4936172;29;20422;-85
2021/01/18 02:44:41;;;;;;;14.80;9.13;;;3.10;99.90;;;;;;4933240;28;20467;-84
2021/01/18 02:47:08;;;;;;;13.60;9.33;;;3.10;99.90;;;;;;4943978;28;20428;-87
2021/01/18 02:49:35;;;;;;;14.83;9.43;;;3.10;99.90;;;;;;4920146;29;20442;-84
2021/01/18 02:52:06;;;;;;;16.83;8.93;;;3.10;99.90;;;;;;4925045;29;20427;-85
2021/01/18 02:54:32;;;;;;;14.63;8.27;;;3.10;99.90;;;;;;4938952;28;20448;-86
2021/01/18 02:56:58;;;;;;;22.90;8.40;;;3.10;99.90;;;;;;4936995;29;20419;-84
2021/01/18 02:59:25;;;;;;;13.57;9.30;;;3.10;99.90;;;;;;4939046;29;20466;-87
2021/01/18 03:02:13;;;;;;;19.13;9.60;;;3.10;99.90;;;;;;4942808;28;20508;-86
2021/01/18 03:05:09;;;;;;;13.33;8.80;;;3.10;99.90;;;;;;4935118;28;20623;-86
2021/01/18 03:07:46;;;;;;;25.30;9.73;;;3.10;99.90;;;;;;4936452;29;20444;-85
2021/01/18 03:10:31;;;;;;;14.80;8.23;;;3.10;99.90;;;;;;4940157;28;20453;-87
2021/01/18 03:13:06;;;;;;;16.93;9.17;;;3.10;99.90;;;;;;4938138;28;20459;-87
2021/01/18 03:15:41;;;;;;;18.33;9.60;;;3.10;99.90;;;;;;4944172;28;20430;-86
2021/01/18 03:18:11;;;;;;;22.50;9.27;;;3.10;99.90;;;;;;4940473;28;20462;-85
2021/01/18 03:20:37;;;;;;;12.83;8.10;;;3.10;99.90;;;;;;4939342;29;20416;-87
2021/01/18 03:23:07;;;;;;;20.43;8.93;;;3.10;99.90;;;;;;4922312;29;20435;-85
2021/01/18 03:25:56;;;;;;;11.80;8.00;;;3.20;99.90;;;;;;4911467;29;20432;-85
2021/01/18 03:28:24;;;;;;;21.00;9.20;;;3.20;99.90;;;;;;4933419;29;20457;-86
2021/01/18 03:30:53;;;;;;;11.67;7.70;;;3.20;99.90;;;;;;4951176;28;20433;-86
2021/01/18 03:33:24;;;;;;;15.90;9.43;;;3.20;99.90;;;;;;4938212;29;20448;-87
2021/01/18 03:35:50;;;;;;;19.90;7.90;;;3.20;99.90;;;;;;4936325;28;20844;-88
2021/01/18 03:38:16;;;;;;;19.93;7.77;;;3.20;99.90;;;;;;4924368;29;20560;-86
2021/01/18 03:40:42;;;;;;;15.73;7.00;;;3.20;99.90;;;;;;4946168;28;20456;-86
2021/01/18 03:43:08;;;;;;;17.53;6.80;;;3.20;99.90;;;;;;4923431;29;20262;-87
2021/01/18 03:45:36;;;;;;;18.90;8.73;;;3.20;99.90;;;;;;4948541;29;20184;-84
2021/01/18 03:48:04;;;;;;;13.10;7.10;;;3.20;99.90;;;;;;4940026;29;20439;-86
2021/01/18 03:50:29;;;;;;;14.90;8.03;;;3.30;99.90;;;;;;4946199;29;20944;-84
2021/01/18 03:52:55;;;;;;;18.03;8.87;;;3.30;99.90;;;;;;4934211;29;20476;-84
2021/01/18 03:55:21;;;;;;;14.33;7.00;;;3.30;99.90;;;;;;4938382;28;20204;-85
2021/01/18 03:57:51;;;;;;;16.50;8.83;;;3.40;99.90;;;;;;4926494;28;20201;-85
2021/01/18 04:00:20;;;;;;;15.67;8.70;;;3.30;99.90;;;;;;4928063;29;20484;-84
2021/01/18 04:02:45;;;;;;;14.07;7.67;;;3.40;99.90;;;;;;4941378;28;20462;-85
2021/01/18 04:05:14;;;;;;;19.90;8.93;;;3.40;99.90;;;;;;4946923;28;20428;-86
2021/01/18 04:07:41;;;;;;;14.20;7.17;;;3.40;99.90;;;;;;4940856;28;20238;-84
2021/01/18 04:10:08;;;;;;;10.90;7.27;;;3.40;99.90;;;;;;4920268;29;20447;-85
2021/01/18 04:12:33;;;;;;;14.03;7.17;;;3.40;99.90;;;;;;4944393;28;20508;-86
2021/01/18 04:14:59;;;;;;;10.87;6.60;;;3.40;99.90;;;;;;4902402;29;20720;-83
2021/01/18 04:17:25;;;;;;;9.03;6.40;;;3.40;99.90;;;;;;4925360;29;20184;-83
2021/01/18 04:19:50;;;;;;;19.20;8.27;;;3.40;99.90;;;;;;4917974;29;20184;-85
2021/01/18 04:22:16;;;;;;;17.77;7.90;;;3.40;99.90;;;;;;4941808;29;20179;-87
2021/01/18 04:24:42;;;;;;;13.33;8.80;;;3.40;99.90;;;;;;4933537;29;20196;-86
2021/01/18 04:27:08;;;;;;;11.97;6.80;;;3.40;99.90;;;;;;4928032;29;20195;-86
2021/01/18 04:29:35;;;;;;;15.27;8.10;;;3.50;99.90;;;;;;4940996;29;20347;-85
2021/01/18 04:32:01;;;;;;;11.80;7.37;;;3.50;99.90;;;;;;4921548;29;20426;-85
2021/01/18 04:34:27;;;;;;;11.13;6.70;;;3.50;99.90;;;;;;4942096;28;20543;-85
2021/01/18 04:36:53;;;;;;;14.73;7.90;;;3.50;99.90;;;;;;4928211;29;21038;-84
2021/01/18 04:39:19;;;;;;;11.20;6.70;;;3.60;99.90;;;;;;4923441;29;20247;-87
2021/01/18 04:41:46;;;;;;;11.90;6.73;;;3.60;99.90;;;;;;4928724;28;20194;-83
2021/01/18 04:44:14;;;;;;;9.97;6.37;;;3.60;99.90;;;;;;4932206;29;20222;-86
2021/01/18 04:46:42;;;;;;;10.07;6.60;;;3.60;99.90;;;;;;4910931;29;20427;-86
2021/01/18 04:49:09;;;;;;;9.30;5.67;;;3.60;99.90;;;;;;4938098;28;20449;-87
2021/01/18 04:51:40;;;;;;;16.53;6.83;;;3.50;99.90;;;;;;4944507;28;20423;-85
2021/01/18 04:54:13;;;;;;;16.70;6.07;;;3.60;99.90;;;;;;4931964;28;20466;-84
2021/01/18 04:57:06;;;;;;;11.90;7.47;;;3.50;99.90;;;;;;4914038;29;20859;-85
2021/01/18 05:00:02;;;;;;;10.50;5.80;;;3.50;99.90;;;;;;4939284;29;20525;-85
2021/01/18 05:02:56;;;;;;;;;;;;;;;;;;;;;
2021/01/18 05:05:29;;;;;;;19.10;6.37;;;3.50;99.90;;;;;;4940785;28;20446;-83
2021/01/18 05:08:13;;;;;;;9.37;5.00;;;3.50;99.90;;;;;;4933803;29;20422;-83
2021/01/18 05:10:42;;;;;;;10.30;6.00;;;3.40;99.90;;;;;;4941011;29;20475;-85
2021/01/18 05:13:07;;;;;;;17.10;7.50;;;3.40;99.90;;;;;;4932248;29;20467;-83
2021/01/18 05:15:38;;;;;;;13.10;7.17;;;3.50;99.90;;;;;;4917658;29;21070;-85
2021/01/18 05:18:07;;;;;;;9.13;5.07;;;3.50;99.90;;;;;;4911014;29;20244;-83
2021/01/18 05:20:33;;;;;;;16.00;7.33;;;3.40;99.90;;;;;;4933191;29;20975;-84
2021/01/18 05:22:59;;;;;;;13.77;6.20;;;3.40;99.90;;;;;;4927279;29;20475;-83
2021/01/18 05:25:24;;;;;;;11.67;6.67;;;3.40;99.90;;;;;;4915641;29;20506;-85
2021/01/18 05:28:02;;;;;;;12.20;5.73;;;3.40;99.90;;;;;;4932401;28;20702;-84
2021/01/18 05:30:32;;;;;;;10.03;6.53;;;3.40;99.90;;;;;;4916209;29;20668;-84
2021/01/18 05:33:10;;;;;;;12.40;7.37;;;3.40;99.90;;;;;;4911072;29;20467;-84
2021/01/18 05:35:39;;;;;;;12.00;7.13;;;3.40;99.90;;;;;;4912212;28;20446;-83
2021/01/18 05:38:11;;;;;;;8.87;5.77;;;3.40;99.90;;;;;;4927386;29;21282;-86
2021/01/18 05:41:01;;;;;;;12.63;6.53;;;3.30;99.90;;;;;;4931550;29;20623;-84
2021/01/18 05:43:34;;;;;;;11.37;7.00;;;3.20;99.90;;;;;;4933490;29;20466;-88
2021/01/18 05:46:04;;;;;;;15.53;8.23;;;3.20;99.90;;;;;;4929455;29;20450;-85
2021/01/18 05:48:31;;;;;;;11.77;7.50;;;3.20;99.90;;;;;;4927479;29;20432;-83
2021/01/18 05:50:59;;;;;;;16.80;7.60;;;3.20;99.90;;;;;;4914079;29;20442;-86
2021/01/18 05:53:31;;;;;;;13.17;7.30;;;3.20;99.90;;;;;;4928771;29;20465;-85
2021/01/18 05:56:16;;;;;;;15.90;7.13;;;3.20;99.90;;;;;;4929280;29;20458;-87
2021/01/18 05:58:41;;;;;;;9.27;6.20;;;3.20;99.90;;;;;;4914583;29;20472;-83
2021/01/18 06:01:07;;;;;;;8.47;6.43;;;3.20;99.90;;;;;;4926766;29;20432;-88
2021/01/18 06:03:33;;;;;;;15.70;7.47;;;3.20;99.90;;;;;;4934434;28;20236;-85
2021/01/18 06:05:59;;;;;;;14.23;9.10;;;3.20;99.90;;;;;;4929903;28;20197;-86
2021/01/18 06:08:27;;;;;;;14.20;6.67;;;3.20;99.90;;;;;;4927566;29;20491;-87
2021/01/18 06:10:58;;;;;;;8.63;6.23;;;3.10;99.90;;;;;;4913128;29;20451;-86
2021/01/18 06:13:34;;;;;;;12.80;7.00;;;3.10;99.90;;;;;;4919378;29;20541;-86
2021/01/18 06:16:14;;;;;;;15.10;8.10;;;3.10;99.90;;;;;;4911748;29;20470;-88
2021/01/18 06:18:41;;;;;;;12.00;6.97;;;3.10;99.90;;;;;;4929787;29;20459;-86
2021/01/18 06:21:12;;;;;;;14.43;7.13;;;3.10;99.90;;;;;;4913428;29;20561;-85
2021/01/18 06:23:40;;;;;;;14.70;8.20;;;3.10;99.90;;;;;;4933404;28;21017;-86
2021/01/18 06:26:07;;;;;;;11.37;7.23;;;3.20;99.90;;;;;;4915034;29;20944;-87
2021/01/18 06:28:41;;;;;;;11.10;5.27;;;3.20;99.90;;;;;;4911967;29;20433;-86
2021/01/18 06:31:15;;;;;;;12.97;8.43;;;3.10;99.90;;;;;;4930261;28;20438;-87
2021/01/18 06:33:49;;;;;;;10.80;7.37;;;3.10;99.90;;;;;;4927519;29;20476;-85
2021/01/18 06:36:23;;;;;;;15.00;8.63;;;3.10;99.90;;;;;;4912598;28;20504;-85
2021/01/18 06:38:58;;;;;;;14.50;8.40;;;3.10;99.90;;;;;;4930806;29;20473;-85
2021/01/18 06:41:31;;;;;;;9.50;6.73;;;3.00;99.90;;;;;;4932945;28;20504;-85
2021/01/18 06:43:58;;;;;;;11.20;7.07;;;3.00;99.90;;;;;;4928095;28;20522;-86
2021/01/18 06:46:28;;;;;;;16.57;7.37;;;3.10;99.90;;;;;;4918510;29;20436;-86
2021/01/18 06:48:54;;;;;;;15.70;7.07;;;3.10;99.90;;;;;;4918084;29;20447;-84
2021/01/18 06:51:23;;;;;;;11.37;7.10;;;3.10;99.90;;;;;;4937819;28;20431;-88
2021/01/18 06:53:51;;;;;;;14.93;6.83;;;3.20;99.90;;;;;;4937500;28;20471;-87
2021/01/18 06:56:23;;;;;;;29.43;7.13;;;3.20;99.90;;;;;;4929841;29;20532;-85
2021/01/18 06:58:52;;;;;;;13.07;7.00;;;3.20;99.90;;;;;;4935888;28;20463;-84
2021/01/18 07:01:38;;;;;;;19.17;7.97;;;3.20;99.90;;;;;;4932949;29;20438;-84
2021/01/18 07:04:09;;;;;;;11.90;7.57;;;3.20;99.90;;;;;;4933936;28;20789;-88
2021/01/18 07:06:37;;;;;;;9.93;7.00;;;3.20;99.90;;;;;;4932142;29;20893;-86
2021/01/18 07:09:13;;;;;;;9.00;6.90;;;3.20;99.90;;;;;;4916429;29;20462;-86
2021/01/18 07:11:39;;;;;;;16.03;7.63;;;3.30;99.90;;;;;;4932892;29;20531;-86
2021/01/18 07:14:06;;;;;;;9.33;4.37;;;3.30;99.90;;;;;;4932251;29;20513;-88
2021/01/18 07:16:32;;;;;;;9.13;6.73;;;3.30;99.90;;;;;;4919215;29;20447;-86
2021/01/18 07:19:03;;;;;;;14.23;8.17;;;3.30;99.90;;;;;;4896263;29;20470;-85
2021/01/18 07:21:37;;;;;;;11.27;7.40;;;3.30;99.90;;;;;;4935558;28;20467;-86
2021/01/18 07:24:07;;;;;;;14.40;7.50;;;3.30;99.90;;;;;;4930258;28;20458;-84
2021/01/18 07:26:59;;;;;;;18.17;8.50;;;3.30;99.90;;;;;;4930861;29;20576;-85
2021/01/18 07:29:26;;;;;;;4.90;4.27;;;3.30;99.90;;;;;;4936953;29;20448;-84
2021/01/18 07:32:00;;;;;;;15.70;6.20;;;3.30;99.90;;;;;;4909571;29;20886;-86
2021/01/18 07:34:27;;;;;;;20.90;8.40;;;3.30;99.90;;;;;;4933870;29;20491;-86
2021/01/18 07:37:05;;;;;;;9.60;6.70;;;3.40;99.90;;;;;;4916061;29;20453;-85
2021/01/18 07:39:39;;;;;;;16.17;7.50;;;3.40;99.90;;;;;;4932689;29;20481;-85
2021/01/18 07:42:25;;;;;;;12.73;6.00;;;3.40;99.90;;;;;;4932117;29;20436;-85
2021/01/18 07:45:10;;;;;;;8.80;6.47;;;3.50;99.90;;;;;;4916617;29;20450;-84
2021/01/18 07:47:55;;;;;;;12.03;7.90;;;3.50;99.90;;;;;;4918102;29;20782;-84
2021/01/18 07:50:44;;;;;;;15.67;8.00;;;3.50;99.90;;;;;;4935023;29;20431;-85
2021/01/18 07:53:11;;;;;;;11.17;7.33;;;3.60;99.90;;;;;;4919080;29;20521;-85
2021/01/18 07:55:38;;;;;;;7.27;5.83;;;3.60;99.90;;;;;;4937899;28;20431;-83
2021/01/18 07:58:20;;;;;;;14.10;8.37;;;3.80;99.90;;;;;;4930340;28;20738;-85
2021/01/18 08:00:48;;;;;;;11.57;7.80;;;3.80;99.90;;;;;;4932559;29;20431;-86
2021/01/18 08:03:13;;;;;;;11.90;5.87;;;3.80;99.90;;;;;;4934415;29;20465;-84
2021/01/18 08:05:42;;;;;;;13.03;7.60;;;3.80;99.90;;;;;;4933279;28;20444;-84
2021/01/18 08:08:09;;;;;;;15.13;7.40;;;3.80;99.90;;;;;;4915050;29;20187;-85
2021/01/18 08:11:27;;;;;;;9.27;5.93;;;3.80;99.90;;;;;;4930328;28;20450;-83
2021/01/18 08:13:59;;;;;;;10.10;6.40;;;3.80;99.90;;;;;;4909452;29;20475;-86
2021/01/18 08:16:36;;;;;;;14.50;7.53;;;3.70;99.90;;;;;;4931709;28;20442;-84
2021/01/18 08:19:26;;;;;;;18.13;6.97;;;3.70;99.90;;;;;;4931587;29;20477;-84
2021/01/18 08:22:04;;;;;;;15.67;8.70;;;3.70;99.90;;;;;;4920032;29;20474;-85
2021/01/18 08:24:33;;;;;;;11.80;7.80;;;3.70;99.90;;;;;;4932386;28;20467;-87
2021/01/18 08:26:59;;;;;;;12.43;7.17;;;3.70;99.90;;;;;;4924261;29;20522;-87
2021/01/18 08:29:52;;;;;;;13.33;7.40;;;3.70;99.90;;;;;;4936738;29;20870;-85
2021/01/18 08:32:24;;;;;;;11.53;6.73;;;3.70;99.90;;;;;;4934876;28;20200;-84
2021/01/18 08:35:10;;;;;;;11.03;7.17;;;3.70;99.90;;;;;;4938673;29;20801;-85
2021/01/18 08:37:37;;;;;;;7.80;5.83;;;3.60;99.90;;;;;;4933268;29;20455;-82
2021/01/18 08:40:12;;;;;;;12.83;6.77;;;3.70;99.90;;;;;;4936508;29;20526;-89
2021/01/18 08:42:40;;;;;;;8.83;6.50;;;3.60;99.90;;;;;;4930295;29;20494;-86
2021/01/18 08:45:10;;;;;;;9.63;6.67;;;3.60;99.90;;;;;;4924516;29;20858;-87
2021/01/18 08:47:40;;;;;;;9.10;5.20;;;3.60;99.90;;;;;;4931921;29;20427;-84
2021/01/18 08:50:29;;;;;;;8.87;6.03;;;3.70;99.90;;;;;;4904757;29;20454;-84
2021/01/18 08:53:00;;;;;;;13.50;7.40;;;3.70;99.90;;;;;;4932450;29;22816;-86
2021/01/18 08:55:29;;;;;;;10.40;6.70;;;3.70;99.90;;;;;;4914936;29;20432;-88
2021/01/18 08:57:58;;;;;;;10.13;7.27;;;3.80;99.90;;;;;;4933138;29;20546;-85
2021/01/18 09:00:36;;;;;;;10.97;6.27;;;3.80;99.90;;;;;;4934101;28;20447;-87
2021/01/18 09:03:02;;;;;;;13.27;6.03;;;3.80;99.90;;;;;;4938422;28;20468;-83
2021/01/18 09:05:27;;;;;;;12.77;6.27;;;3.90;99.90;;;;;;4933738;29;20838;-85
2021/01/18 09:07:54;;;;;;;11.63;6.57;;;4.00;99.90;;;;;;4911748;29;20608;-87
2021/01/18 09:10:22;;;;;;;9.83;6.27;;;4.10;99.90;;;;;;4921997;29;20195;-87
2021/01/18 09:12:49;;;;;;;11.33;6.47;;;4.10;99.90;;;;;;4935414;28;20518;-87
2021/01/18 09:15:18;;;;;;;9.83;6.83;;;4.10;99.90;;;;;;4904864;29;20850;-82
2021/01/18 09:17:44;;;;;;;13.03;7.00;;;4.20;99.90;;;;;;4910905;29;20495;-87
2021/01/18 09:20:12;;;;;;;10.00;5.10;;;4.20;99.90;;;;;;4943490;28;21010;-86
2021/01/18 09:22:42;;;;;;;9.33;6.10;;;4.20;99.90;;;;;;4937176;28;20449;-87
2021/01/18 09:25:09;;;;;;;12.60;6.97;;;4.20;99.90;;;;;;4908403;29;21162;-84
2021/01/18 09:27:37;;;;;;;10.47;5.97;;;4.30;99.90;;;;;;4905888;29;20438;-84
2021/01/18 09:30:15;;;;;;;13.50;6.60;;;4.40;99.90;;;;;;4914306;29;20459;-84
2021/01/18 09:32:59;;;;;;;13.33;6.90;;;4.40;99.90;;;;;;4936782;28;20473;-83
2021/01/18 09:35:27;;;;;;;13.80;6.63;;;4.40;99.90;;;;;;4935771;28;20516;-86
2021/01/18 09:37:54;;;;;;;10.77;6.20;;;4.50;99.90;;;;;;4941133;28;20451;-81
2021/01/18 09:40:20;;;;;;;10.10;6.40;;;4.60;99.90;;;;;;4919537;29;20789;-84
2021/01/18 09:42:49;;;;;;;12.87;6.90;;;4.60;99.90;;;;;;4907584;29;20476;-84
2021/01/18 09:45:15;;;;;;;10.17;6.60;;;4.60;99.90;;;;;;4912549;29;20454;-86
2021/01/18 09:47:41;;;;;;;6.47;5.30;;;4.70;99.90;;;;;;4921493;29;20815;-84
2021/01/18 09:50:09;;;;;;;11.70;6.90;;;4.70;99.90;;;;;;4940846;29;20522;-88
2021/01/18 09:52:49;;;;;;;13.23;6.67;;;4.80;99.90;;;;;;4942369;28;20522;-88
2021/01/18 09:55:23;;;;;;;9.70;5.97;;;4.80;99.90;;;;;;4924797;29;20456;-88
2021/01/18 09:58:14;;;;;;;8.80;5.53;;;4.70;99.90;;;;;;4918908;29;20468;-88
2021/01/18 10:00:46;;;;;;;10.00;5.43;;;4.70;99.90;;;;;;4860380;29;20588;-88
2021/01/18 10:03:30;;;;;;;9.07;6.30;;;4.60;99.90;;;;;;4935420;28;21008;-86
2021/01/18 10:06:21;;;;;;;9.00;5.70;;;4.80;99.90;;;;;;4919005;29;20426;-87
2021/01/18 10:08:52;;;;;;;5.60;4.63;;;4.80;99.90;;;;;;4922564;28;20427;-90
2021/01/18 10:11:40;;;;;;;9.77;5.03;;;4.90;99.90;;;;;;4932377;28;20472;-87
2021/01/18 10:14:23;;;;;;;9.07;4.70;;;4.70;99.90;;;;;;4942049;28;20460;-87
2021/01/18 10:17:09;;;;;;;6.27;4.30;;;4.70;99.90;;;;;;4932607;29;20497;-87
2021/01/18 10:19:39;;;;;;;9.10;5.77;;;4.70;99.90;;;;;;4922423;29;20764;-88
2021/01/18 10:22:15;;;;;;;10.70;5.13;;;4.70;99.90;;;;;;4945499;28;20459;-88
2021/01/18 10:24:41;;;;;;;8.90;5.13;;;4.70;99.90;;;;;;4935161;28;20471;-86
2021/01/18 10:27:15;;;;;;;5.57;3.57;;;4.70;99.90;;;;;;4918096;29;20427;-86
2021/01/18 10:29:41;;;;;;;8.20;5.40;;;4.80;99.90;;;;;;4916805;29;20470;-82
2021/01/18 10:32:08;;;;;;;8.43;5.00;;;4.80;99.90;;;;;;4925295;29;20447;-87
2021/01/18 10:34:37;;;;;;;6.73;5.20;;;4.80;99.90;;;;;;4887900;29;20438;-86
2021/01/18 10:37:18;;;;;;;12.93;4.97;;;4.90;99.90;;;;;;4939495;29;20419;-86
2021/01/18 10:39:49;;;;;;;6.87;4.37;;;5.10;99.90;;;;;;4935513;29;20481;-85
2021/01/18 10:42:17;;;;;;;8.83;5.00;;;5.10;99.90;;;;;;4895638;29;20519;-86
2021/01/18 10:44:55;;;;;;;6.23;4.37;;;5.00;99.90;;;;;;4924947;29;20649;-86
2021/01/18 10:47:31;;;;;;;5.73;4.80;;;5.00;99.90;;;;;;4941052;29;20434;-84
2021/01/18 10:50:00;;;;;;;6.10;4.70;;;5.10;99.90;;;;;;4942272;29;20428;-84
2021/01/18 10:52:41;;;;;;;10.50;5.13;;;5.20;99.90;;;;;;4942711;28;20434;-85
2021/01/18 10:55:11;;;;;;;6.77;4.50;;;5.20;99.90;;;;;;4920606;29;20493;-85
2021/01/18 10:57:43;;;;;;;6.40;5.40;;;5.10;99.90;;;;;;4926948;29;20439;-83
2021/01/18 11:00:13;;;;;;;14.13;5.57;;;5.10;99.90;;;;;;4936945;29;20624;-83
2021/01/18 11:02:41;;;;;;;8.90;5.50;;;5.10;99.90;;;;;;4923522;29;20594;-85
2021/01/18 11:05:09;;;;;;;13.73;6.07;;;5.20;99.90;;;;;;4919865;28;20890;-84
2021/01/18 11:07:36;;;;;;;10.13;4.80;;;5.50;99.90;;;;;;4930600;29;20511;-85
2021/01/18 11:10:04;;;;;;;11.07;6.53;;;5.50;99.90;;;;;;4940979;28;20435;-87
2021/01/18 11:12:31;;;;;;;11.77;5.10;;;5.50;99.90;;;;;;4898647;28;20427;-86
2021/01/18 11:15:00;;;;;;;12.03;5.67;;;5.50;99.90;;;;;;4942495;29;20427;-83
2021/01/18 11:17:28;;;;;;;13.70;5.90;;;5.50;99.90;;;;;;4939814;28;20435;-86
2021/01/18 11:19:53;;;;;;;9.60;5.00;;;5.50;99.90;;;;;;4917973;29;20967;-88
2021/01/18 11:22:19;;;;;;;6.87;5.00;;;5.70;99.90;;;;;;4902900;28;20440;-87
2021/01/18 11:24:45;;;;;;;5.97;4.20;;;5.60;99.90;;;;;;4926718;29;20184;-86
2021/01/18 11:27:11;;;;;;;11.57;5.43;;;5.80;99.90;;;;;;4938772;29;20925;-85
2021/01/18 11:29:37;;;;;;;8.40;4.73;;;5.90;99.90;;;;;;4917720;28;20191;-83
2021/01/18 11:32:02;;;;;;;8.50;4.57;;;5.90;99.90;;;;;;4898074;29;20230;-84
2021/01/18 11:34:28;;;;;;;9.53;4.70;;;6.00;99.90;;;;;;4910276;29;20269;-86
2021/01/18 11:37:07;;;;;;;7.70;4.67;;;6.00;99.90;;;;;;4953690;28;20427;-84
2021/01/18 11:39:34;;;;;;;7.33;4.97;;;6.20;99.90;;;;;;4939953;29;20462;-87
2021/01/18 11:42:04;;;;;;;6.20;4.50;;;6.00;99.90;;;;;;4951768;28;21270;-88
2021/01/18 11:44:29;;;;;;;4.87;4.00;;;6.00;99.90;;;;;;4912911;28;20488;-87
2021/01/18 11:46:58;;;;;;;8.90;4.90;;;5.90;99.90;;;;;;4920511;29;20474;-84
2021/01/18 11:49:25;;;;;;;7.53;4.07;;;5.80;99.90;;;;;;4943103;29;20202;-89
2021/01/18 11:51:51;;;;;;;15.40;5.97;;;5.70;99.90;;;;;;4942078;29;20434;-86
2021/01/18 11:54:17;;;;;;;12.47;5.33;;;5.60;99.90;;;;;;4954852;29;20572;-85
2021/01/18 11:56:43;;;;;;;10.10;5.67;;;5.60;99.90;;;;;;4950793;28;20411;-87
2021/01/18 11:59:11;;;;;;;8.77;5.70;;;5.60;99.90;;;;;;4897807;28;20473;-88
2021/01/18 12:01:41;;;;;;;7.30;5.57;;;5.50;99.90;;;;;;4926585;29;20222;-83
2021/01/18 12:04:07;;;;;;;8.73;4.20;;;5.50;99.90;;;;;;4941292;29;20470;-86
2021/01/18 12:06:34;;;;;;;6.77;5.00;;;5.50;99.90;;;;;;4915343;29;20489;-86
2021/01/18 12:09:00;;;;;;;8.30;5.80;;;5.50;99.90;;;;;;4937415;29;20456;-86
2021/01/18 12:11:26;;;;;;;7.97;5.33;;;5.50;99.90;;;;;;4913088;29;20499;-85
2021/01/18 12:13:58;;;;;;;9.50;5.90;;;5.50;99.90;;;;;;4942323;29;20283;-89
2021/01/18 12:16:25;;;;;;;8.03;5.53;;;5.50;99.90;;;;;;4898777;29;20446;-84
2021/01/18 12:18:54;;;;;;;8.13;5.73;;;5.40;99.90;;;;;;4946135;29;20638;-85
2021/01/18 12:21:20;;;;;;;8.67;5.77;;;5.60;99.90;;;;;;4926193;29;20447;-85
2021/01/18 12:23:47;;;;;;;5.23;4.47;;;5.60;99.90;;;;;;4949041;29;20460;-86
2021/01/18 12:26:17;;;;;;;9.70;6.03;;;5.70;99.90;;;;;;4951076;29;20442;-84
2021/01/18 12:28:43;;;;;;;10.83;5.13;;;5.70;99.90;;;;;;4952026;28;20427;-88
2021/01/18 12:31:09;;;;;;;11.07;5.60;;;5.70;99.90;;;;;;4939551;29;20449;-87
2021/01/18 12:33:35;;;;;;;20.90;7.70;;;5.80;99.90;;;;;;4943996;29;20478;-82
2021/01/18 12:36:01;;;;;;;9.53;5.27;;;5.80;99.90;;;;;;4936759;29;20457;-83
2021/01/18 12:38:27;;;;;;;16.83;7.10;;;5.90;99.90;;;;;;4955442;28;20231;-87
2021/01/18 12:40:53;;;;;;;9.53;6.10;;;5.90;99.90;;;;;;4930414;28;20439;-87
2021/01/18 12:43:19;;;;;;;7.70;5.77;;;5.90;99.90;;;;;;4937111;29;20203;-87
2021/01/18 12:45:46;;;;;;;8.67;5.67;;;6.00;99.90;;;;;;4941332;29;20895;-86
2021/01/18 12:48:12;;;;;;;6.20;5.50;;;6.00;99.90;;;;;;4948848;28;20443;-86
2021/01/18 12:50:39;;;;;;;9.93;5.63;;;6.20;99.90;;;;;;4936828;28;20454;-87
2021/01/18 12:53:05;;;;;;;5.20;4.70;;;6.20;99.90;;;;;;4925392;28;20250;-86
2021/01/18 12:55:31;;;;;;;11.93;5.57;;;6.20;99.90;;;;;;4901287;29;20443;-87
2021/01/18 12:57:56;;;;;;;10.80;5.50;;;6.20;99.90;;;;;;4940823;29;20463;-87
2021/01/18 13:00:22;;;;;;;7.37;5.30;;;6.20;99.90;;;;;;4943287;28;20195;-86
2021/01/18 13:02:48;;;;;;;11.57;6.50;;;6.10;99.90;;;;;;4933277;28;20687;-88
2021/01/18 13:05:14;;;;;;;12.10;6.27;;;6.10;99.90;;;;;;4936868;28;20423;-86
2021/01/18 13:07:49;;;;;;;8.30;5.87;;;6.20;99.90;;;;;;4931172;28;20210;-87
2021/01/18 13:10:18;;;;;;;7.97;5.67;;;6.20;99.90;;;;;;4944182;28;20450;-85